Tulsa, Oklahoma
Current Conditions -  °F | °C
As of 9:53 AM on Saturday 25 Oct 2014 (Local Time) from KTUL Reporting Station
Clear Clear  
Wind Chill: 21°   Ceiling: Unl
Heat Index: 21°   Visibility: 10mi
Dew Point: 16°   Wind: 8mph
Humidity: 73%   Direction: 190°S
Pressure: 30.08"   Gusts: NA
Location:  36.15°N, 95.99°W
Report Text: KTUL 251453Z 19007KT 10SM CLR 21/16 A3008 RMK AO2 SLP179 T02110161 53010
Loading
Personal Weather Stations






























Interactive Weather Map New forecast layout! Learn more

10-Day Weather Forecast

Advertisements
Track Severe Weather on mobile